Tiempo atmosférico en la estación meteorológica de La Pobla de Massaluca, Tarragona (365 m.)



Fecha
DESCASC
Temp. máxima en grados centígrados (hora)
DESCASC
Temp. mínima en grados centígrados (hora)
DESCASC
Temp. media en grados centígrados
DESCASC
Racha de viento máxima en m/sg (hora)
DESCASC
Velocidad máxima media en intervalos de 10 minutos(hora)
DESCASC
Precipitaciones diarias en mm
DESCASC
Precipitaciones de 00:00 a 06:00 en mm
DESCASC
Precipitaciones de 06:00 a 12:00 en mm
DESCASC
Precipitaciones de 12:00 a 18:00 en mm
DESCASC
Precipitaciones de 18:00 a 24:00 en mm
DESCASC
22-04-2019 12.3 (17:50) 9.2 (08:10) 10.8 6.39 (12:50) 4.17 (13:10) 3.6 0 2.6 0 1
21-04-2019 12 (18:10) 7.9 (04:20) 10 8.89 (00:40) 4.44 (02:40) 4 3.6 0.4 0 0
20-04-2019 18.7 (13:50) 8.6 (23:00) 13.7 15 (13:20) 9.72 (13:20) 19.8 0 0 0.2 19.6
19-04-2019 21.3 (13:30) 13.5 (01:30) 17.4 20.28 (15:50) 13.33 (15:50) 0 0 0 0 0
18-04-2019 18.3 (15:30) 10.4 (00:00) 14.3 21.39 (18:30) 11.11 (17:20) 0 0 0 0 0
17-04-2019 17.6 (15:10) 9.5 (00:00) 13.6 13.89 (23:59) 7.78 (23:59) 0 0 0 0 0
16-04-2019 20.3 (15:10) 8.7 (00:00) 14.5 11.11 (18:40) 5.83 (18:10) 0 0 0 0 0
15-04-2019 17.6 (00:00) 10.5 (00:00) 14.1 13.89 (10:20) 7.78 (17:10) 0.2 0 0 0 0.2
14-04-2019 24.6 (17:40) 11.1 (00:00) 17.9 16.39 (17:50) 10.28 (17:50) 0 0 0 0 0
13-04-2019 21.8 (18:10) 6.4 (00:00) 14.1 9.17 (13:00) 5.28 (10:30) 0 0 0 0 0
12-04-2019 18.9 (17:50) 6.9 (00:00) 12.9 11.94 (01:50) 7.78 (01:50) 0 0 0 0 0
11-04-2019 17.6 (16:20) 6.8 (00:00) 12.2 15.83 (17:40) 10.83 (17:40) 0 0 0 0 0
10-04-2019 17.8 (17:30) 7.2 (00:00) 12.5 12.5 (13:10) 8.33 (12:20) 0.2 0 0 0 0.2
09-04-2019 17.7 (17:10) 7.5 (00:00) 12.6 12.5 (21:20) 8.33 (11:30) 0 0 0 0 0
08-04-2019 18.9 (18:00) 7.6 (00:00) 13.2 11.11 (15:00) 7.78 (15:00) 1.8 0 0 0 1.8
07-04-2019 15.3 (18:30) 5.9 (00:00) 10.6 15.83 (12:40) 10.56 (12:40) 0 0 0 0 0
06-04-2019 14.8 (17:10) 4.5 (00:00) 9.7 13.89 (18:50) 8.33 (18:50) 3 0 0 0 3
05-04-2019 17 (15:30) 7.8 (00:00) 12.4 10.83 (16:30) 6.11 (16:30) 5 0 0.2 2.6 2.2
04-04-2019 14.6 (18:20) 1.6 (00:00) 8.1 12.78 (11:10) 8.06 (12:50) 0 0 0 0 0
03-04-2019 13.4 (13:30) 5.3 (23:59) 9.3 10.28 (22:50) 6.94 (17:00) 0.2 0 0 0 0.2
02-04-2019 19.5 (18:00) 9.3 (00:00) 14.4 8.33 (13:00) 5.28 (12:50) 0 0 0 0 0
01-04-2019 16 (17:00) 8.1 (00:00) 12.1 5 (18:10) 2.5 (21:10) 0.8 0.8 0 0 0
31-03-2019 12.5 (15:50) 5.7 (00:00) 9.1 6.11 (00:50) 4.72 (00:50) 1.6 0 0 0.4 1.2
30-03-2019 17.2 (14:50) 6 (00:00) 11.6 10 (15:40) 6.11 (15:40) 0 0 0 0 0
29-03-2019 17.3 (13:50) 6.8 (00:00) 12 9.72 (17:30) 5.83 (14:40) 0 0 0 0 0
28-03-2019 19.5 (16:20) 5.7 (00:00) 12.6 8.89 (21:00) 4.72 (20:10) 0 0 0 0 0
27-03-2019 18.9 (17:00) 5.4 (00:00) 12.1 7.5 (11:10) 4.17 (20:00) 0 0 0 0 0
26-03-2019 19.1 (17:10) 5.9 (00:00) 12.5 11.39 (00:50) 6.94 (01:10) 0 0 0 0 0
25-03-2019 18.7 (14:50) 8.7 (00:00) 13.7 13.06 (12:00) 8.06 (10:50) 0 0 0 0 0

Gráficas

Temp. máximas Temp. mínimas Temp. medias Precipitaciones Rachas de viento máximas Velocidades máximas media en intervalos de 10 minutos

Datos horarios

Fecha y hora oficial Temperatura (ºC) Velocidad del viento (km/h) Dirección del viento Racha (km/h) Dirección de racha Precipitación (mm) Presión (hPa) Tendencia (hPa) Humedad (%)
2019-04-23 23:00:00 12.3 10 Sudoeste 17 Sudoeste 0 -- -- 77
2019-04-23 22:00:00 11.9 6 Oeste 23 Oeste 0 -- -- 94
2019-04-23 21:00:00 12.2 6 Este 13 Oeste 0 -- -- 92
2019-04-23 20:00:00 12.4 7 Nordeste 26 Este 0 -- -- 93
2019-04-23 19:00:00 12.6 4 Sur 31 Oeste 2 -- -- 89
2019-04-23 18:00:00 15.9 21 Sudoeste 43 Sudeste 0 -- -- 67
2019-04-23 17:00:00 18.7 19 Sudeste 40 Sudeste 0 -- -- 65
2019-04-23 16:00:00 19.3 14 Este 31 Este 0 -- -- 56
2019-04-23 15:00:00 18.9 11 Sudeste 25 Sur 0 -- -- 58
2019-04-23 14:00:00 18.8 6 Este 16 Este 0 -- -- 62
2019-04-23 13:00:00 18 7 Sudeste 15 Sur 0 -- -- 69
2019-04-23 12:00:00 17.2 4 Este 15 Este 0 -- -- 79
2019-04-23 11:00:00 15.5 5 Este 12 Sur 0 -- -- 84
2019-04-23 10:00:00 13 0 Calma 6 Nordeste 0 -- -- 93
2019-04-23 09:00:00 11 3 Este 5 Este 0 -- -- 98
2019-04-23 08:00:00 9.8 3 Este 6 Sudeste 0 -- -- 97
2019-04-23 07:00:00 9.8 4 Sudeste 7 Este 0 -- -- 98
2019-04-23 06:00:00 9.7 4 Este 6 Nordeste 0 -- -- 98
2019-04-23 05:00:00 10 4 Sudeste 6 Este 0 -- -- 97
2019-04-23 04:00:00 10 3 Este 6 Sudeste 0 -- -- 97
2019-04-23 03:00:00 10.2 4 Sudeste 9 Sur 0 -- -- 97
2019-04-23 02:00:00 10.2 6 Sudoeste 10 Sur 1.6 -- -- 97
2019-04-23 01:00:00 10.2 3 Nordeste 8 Este 2.6 -- -- 97
2019-04-23 00:00:00 10.8 6 Sudeste 12 Sur 0.6 -- -- 93
2019-04-22 23:00:00 11.2 7 Sudoeste 14 Sur 0 -- -- 90
2019-04-22 22:00:00 11.5 9 Sudoeste 16 Sudoeste 0 -- -- 90
2019-04-22 21:00:00 11.4 5 Sudoeste 12 Sudoeste 0 -- -- 90
2019-04-22 20:00:00 11.4 8 Sudoeste 19 Sudoeste 0 -- -- 89
2019-04-22 19:00:00 11.7 11 Sudoeste 17 Sudoeste 0.4 -- -- 89
2019-04-22 18:00:00 12.3 5 Sudoeste 12 Sudoeste 0 -- -- 86
2019-04-22 17:00:00 12 8 Sudoeste 15 Sudoeste 0 -- -- 89
2019-04-22 16:00:00 11.6 8 Oeste 21 Oeste 0 -- -- 91
2019-04-22 15:00:00 11.5 12 Oeste 22 Oeste 0 -- -- 92
2019-04-22 14:00:00 10.7 11 Oeste 22 Oeste 0 -- -- 96
2019-04-22 13:00:00 10.6 14 Oeste 23 Sudoeste 0 -- -- 95
2019-04-22 12:00:00 10.1 10 Sudoeste 18 Sudoeste 0 -- -- 98
2019-04-22 11:00:00 9.7 9 Oeste 15 Sudoeste 0 -- -- 99
2019-04-22 10:00:00 9.5 9 Oeste 14 Sudoeste 0.2 -- -- 99
2019-04-22 09:00:00 9.2 10 Oeste 17 Oeste 0 -- -- 98
2019-04-22 08:00:00 9.3 12 Oeste 18 Oeste 2 -- -- 97
2019-04-22 07:00:00 9.5 9 Sudoeste 13 Sudoeste 0.4 -- -- 95
2019-04-22 06:00:00 9.6 6 Sudoeste 16 Sudoeste 0 -- -- 95
2019-04-22 05:00:00 9.8 9 Sudoeste 11 Sudoeste 0 -- -- 94
2019-04-22 04:00:00 10.1 9 Sudoeste 12 Sudoeste 0 -- -- 93
2019-04-22 03:00:00 10.5 6 Sudoeste 10 Sudoeste 0 -- -- 92
2019-04-22 02:00:00 10.6 6 Oeste 13 Sudoeste 0 -- -- 91
2019-04-22 01:00:00 10.6 6 Sudoeste 11 Sudoeste 0 -- -- 92
2019-04-22 00:00:00 10.7 2 Oeste 9 Oeste 0 -- -- 92
2019-04-21 23:00:00 11 6 Oeste 13 Sudoeste 0 -- -- 90
2019-04-21 22:00:00 11 8 Sudoeste 15 Sur 0 -- -- 89
2019-04-21 21:00:00 11.2 8 Sur 14 Sur 0 -- -- 90
2019-04-21 20:00:00 11.4 9 Sudoeste 13 Sudoeste 0 -- -- 91
2019-04-21 19:00:00 11.9 8 Sudoeste 14 Sudoeste 0 -- -- 89
2019-04-21 18:00:00 11.9 8 Oeste 17 Sudoeste 0 -- -- 87
2019-04-21 17:00:00 11.8 10 Sudoeste 18 Sudoeste 0 -- -- 87
2019-04-21 16:00:00 11.8 10 Oeste 16 Oeste 0 -- -- 89
2019-04-21 15:00:00 11 9 Sudoeste 13 Oeste 0 -- -- 91
2019-04-21 14:00:00 10.9 9 Sudoeste 16 Oeste 0 -- -- 91
2019-04-21 13:00:00 11.1 9 Oeste 13 Oeste 0 -- -- 93
2019-04-21 12:00:00 9.9 7 Oeste 13 Oeste 0 -- -- 100
2019-04-21 11:00:00 9.1 10 Oeste 15 Oeste 0 -- -- 100
2019-04-21 10:00:00 8.7 8 Oeste 13 Sudoeste 0 -- -- 100
2019-04-21 09:00:00 8.4 8 Oeste 11 Oeste 0 -- -- 100
2019-04-21 08:00:00 8.2 9 Oeste 13 Oeste 0.4 -- -- 99
2019-04-21 07:00:00 8.2 7 Oeste 15 Noroeste 0 -- -- 99
2019-04-21 06:00:00 7.9 11 Oeste 15 Oeste 0.4 -- -- 99
2019-04-21 05:00:00 7.9 8 Oeste 14 Oeste 0.2 -- -- 98
2019-04-21 04:00:00 8 7 Oeste 18 Norte 0.6 -- -- 96
2019-04-21 03:00:00 8.4 13 Nordeste 29 Nordeste 0.4 -- -- 92
2019-04-21 02:00:00 8.5 14 Norte 30 Nordeste 0.6 -- -- 92
2019-04-21 01:00:00 8.6 13 Nordeste 32 Nordeste 1.4 -- -- 92
2019-04-21 00:00:00 8.6 13 Nordeste 36 Nordeste 2.4 -- -- 94
2019-04-20 23:00:00 8.6 16 Nordeste 45 Este 4 -- -- 94
2019-04-20 22:00:00 8.9 29 Este 49 Este 4.2 -- -- 91
2019-04-20 21:00:00 9.2 20 Este 36 Nordeste 2.8 -- -- 89
2019-04-20 20:00:00 10.1 30 Este 53 Este 4 -- -- 85
2019-04-20 19:00:00 11.3 13 Este 31 Este 2.2 -- -- 86
2019-04-20 18:00:00 13.5 17 Este 44 Este 0.2 -- -- 67
2019-04-20 17:00:00 16.8 15 Este 34 Este 0 -- -- 47
2019-04-20 16:00:00 17.8 21 Este 41 Nordeste 0 -- -- 38
2019-04-20 15:00:00 18.2 23 Este 54 Este 0 -- -- 34
2019-04-20 14:00:00 18.5 28 Nordeste 54 Nordeste 0 -- -- 33
2019-04-20 13:00:00 18.1 30 Este 51 Este 0 -- -- 38
2019-04-20 12:00:00 17.7 19 Este 35 Nordeste 0 -- -- 38
2019-04-20 11:00:00 16.6 12 Nordeste 23 Norte 0 -- -- 44
2019-04-20 10:00:00 16 13 Nordeste 22 Nordeste 0 -- -- 43
2019-04-20 09:00:00 13.6 6 Nordeste 14 Nordeste 0 -- -- 50
2019-04-20 08:00:00 12.8 6 Nordeste 11 Este 0 -- -- 52
2019-04-20 07:00:00 12.8 7 Nordeste 14 Este 0 -- -- 52
2019-04-20 06:00:00 13.1 6 Nordeste 18 Nordeste 0 -- -- 50
2019-04-20 05:00:00 13.3 6 Nordeste 12 Nordeste 0 -- -- 51
2019-04-20 04:00:00 14.2 5 Nordeste 35 Este 0 -- -- 51
2019-04-20 03:00:00 14.4 12 Este 25 Este 0 -- -- 50
2019-04-20 02:00:00 14.3 10 Este 19 Este 0 -- -- 52
2019-04-20 01:00:00 14.9 5 Nordeste 13 Este 0 -- -- 54
2019-04-20 00:00:00 15.2 7 Este 30 Este 0 -- -- 54
2019-04-19 23:00:00 15.7 13 Este 36 Este 0 -- -- 52
2019-04-19 22:00:00 16.1 19 Este 44 Este 0 -- -- 49
2019-04-19 21:00:00 16.3 23 Nordeste 37 Este 0 -- -- 47
2019-04-19 20:00:00 16.7 22 Este 35 Este 0 -- -- 46
2019-04-19 19:00:00 17.3 18 Este 46 Este 0 -- -- 48
2019-04-19 18:00:00 18.1 24 Este 58 Este 0 -- -- 44
2019-04-19 17:00:00 18.3 23 Este 56 Este 0 -- -- 46
2019-04-19 16:00:00 19.6 38 Este 73 Este 0 -- -- 35
2019-04-19 15:00:00 20.3 41 Este 71 Este 0 -- -- 39
2019-04-19 14:00:00 20.8 28 Este 71 Este 0 -- -- 40
2019-04-19 13:00:00 20.4 30 Este 57 Este 0 -- -- 40
2019-04-19 12:00:00 19.6 28 Este 68 Este 0 -- -- 46
2019-04-19 11:00:00 17.5 33 Este 64 Este 0 -- -- 50
2019-04-19 10:00:00 16.1 30 Este 59 Este 0 -- -- 57
2019-04-19 09:00:00 14.2 31 Este 49 Este 0 -- -- 64
2019-04-19 08:00:00 13.9 26 Este 46 Este 0 -- -- 66
2019-04-19 07:00:00 13.8 22 Este 46 Este 0 -- -- 67
2019-04-19 06:00:00 13.8 24 Este 47 Este 0 -- -- 67
2019-04-19 05:00:00 13.9 24 Este 51 Nordeste 0 -- -- 65
2019-04-19 04:00:00 13.9 35 Este 59 Este 0 -- -- 63
2019-04-19 03:00:00 13.7 27 Este 59 Este 0 -- -- 62
2019-04-19 02:00:00 13.6 40 Nordeste 63 Este 0 -- -- 65
2019-04-19 01:00:00 13.6 27 Este 54 Este 0 -- -- 67
2019-04-19 00:00:00 14.1 17 Este 36 Este 0 -- -- 63
2019-04-18 23:00:00 14.1 15 Este 51 Este 0 -- -- 60
2019-04-18 22:00:00 14.3 24 Este 61 Este 0 -- -- 62
2019-04-18 21:00:00 14.7 37 Este 64 Este 0 -- -- 61
2019-04-18 20:00:00 15.7 32 Este 63 Este 0 -- -- 56
2019-04-18 19:00:00 16.6 27 Este 77 Este 0 -- -- 52
2019-04-18 18:00:00 17.3 31 Este 71 Este 0 -- -- 51
2019-04-18 17:00:00 17.4 28 Este 67 Este 0 -- -- 51
2019-04-18 16:00:00 18 27 Este 59 Nordeste 0 -- -- 46
2019-04-18 15:00:00 17.5 17 Este 39 Este 0 -- -- 48
2019-04-18 14:00:00 16.6 19 Este 41 Nordeste 0 -- -- 50
2019-04-18 13:00:00 15.4 18 Este 41 Este 0 -- -- 54
2019-04-18 12:00:00 13.9 23 Este 37 Este 0 -- -- 58
2019-04-18 11:00:00 12.2 21 Este 41 Nordeste 0 -- -- 69
2019-04-18 10:00:00 11.3 5 Este 31 Este 0 -- -- 82
2019-04-18 09:00:00 11.4 18 Este 31 Sudeste 0 -- -- 81
2019-04-18 08:00:00 10.5 9 Nordeste 17 Este 0 -- -- 87
2019-04-18 07:00:00 10.7 6 Este 18 Este 0 -- -- 86
2019-04-18 06:00:00 11 13 Este 27 Este 0 -- -- 86
2019-04-18 05:00:00 11.3 14 Este 28 Este 0 -- -- 84
2019-04-18 04:00:00 11.7 14 Este 28 Este 0 -- -- 86
2019-04-18 03:00:00 12.2 12 Este 27 Este 0 -- -- 84
2019-04-18 02:00:00 12.4 14 Este 39 Este 0 -- -- 85
2019-04-18 01:00:00 12.3 21 Este 44 Este 0 -- -- 83
2019-04-18 00:00:00 12.2 28 Este 50 Este 0 -- -- 85
2019-04-17 23:00:00 11.9 25 Este 46 Este 0 -- -- 86
2019-04-17 22:00:00 11.7 23 Este 49 Sudeste 0 -- -- 82
2019-04-17 21:00:00 12 24 Este 42 Nordeste 0 -- -- 78
2019-04-17 20:00:00 12.6 20 Este 43 Este 0 -- -- 79
2019-04-17 19:00:00 13.6 21 Este 44 Este 0 -- -- 75
2019-04-17 18:00:00 14.7 19 Este 41 Este 0 -- -- 72
2019-04-17 17:00:00 16.3 22 Este 47 Este 0 -- -- 66
2019-04-17 16:00:00 17.1 21 Este 44 Este 0 -- -- 63
2019-04-17 15:00:00 17.2 22 Este 50 Este 0 -- -- 63
2019-04-17 14:00:00 16.4 21 Este 46 Este 0 -- -- 66
2019-04-17 13:00:00 15.6 20 Este 44 Este 0 -- -- 69
2019-04-17 12:00:00 15 20 Este 44 Este 0 -- -- 69
2019-04-17 11:00:00 14 15 Este 40 Sudeste 0 -- -- 69
2019-04-17 10:00:00 13.4 16 Este 34 Sudeste 0 -- -- 72
2019-04-17 09:00:00 12.2 16 Este 31 Nordeste 0 -- -- 79
2019-04-17 08:00:00 10.1 15 Este 26 Este 0 -- -- 89
2019-04-17 07:00:00 9.5 13 Este 26 Nordeste 0 -- -- 91
2019-04-17 06:00:00 9.8 15 Este 31 Este 0 -- -- 90
2019-04-17 05:00:00 9.8 16 Este 24 Este 0 -- -- 90
2019-04-17 04:00:00 10.2 15 Este 27 Este 0 -- -- 89
2019-04-17 03:00:00 11 16 Este 33 Este 0 -- -- 86
2019-04-17 02:00:00 10.7 13 Este 27 Este 0 -- -- 87
2019-04-17 01:00:00 10.9 12 Este 30 Este 0 -- -- 84
2019-04-17 00:00:00 11.1 15 Este 31 Este 0 -- -- 81
2019-04-16 23:00:00 11.4 13 Este 26 Este 0 -- -- 73
2019-04-16 22:00:00 11.6 11 Este 24 Este 0 -- -- 66
2019-04-16 21:00:00 12.8 14 Este 32 Este 0 -- -- 56
2019-04-16 20:00:00 15 16 Este 35 Sudeste 0 -- -- 49
2019-04-16 19:00:00 16.4 18 Este 40 Este 0 -- -- 46
2019-04-16 18:00:00 18.7 17 Este 35 Este 0 -- -- 49
2019-04-16 17:00:00 20.1 5 Este 17 Este 0 -- -- 43
2019-04-16 16:00:00 19.5 4 Nordeste 13 Noroeste 0 -- -- 44
2019-04-16 15:00:00 19.9 5 Noroeste 19 Oeste 0 -- -- 45
2019-04-16 14:00:00 18.3 5 Norte 17 Sudoeste 0 -- -- 50
2019-04-16 13:00:00 16.9 8 Oeste 19 Sur 0 -- -- 57
2019-04-16 12:00:00 14.9 9 Oeste 19 Oeste 0 -- -- 64
2019-04-16 11:00:00 13.1 9 Oeste 19 Sudoeste 0 -- -- 68
2019-04-16 10:00:00 10.9 7 Oeste 14 Oeste 0 -- -- 76
2019-04-16 09:00:00 9.4 7 Oeste 18 Sudoeste 0 -- -- 85
2019-04-16 08:00:00 8.7 8 Oeste 16 Oeste 0 -- -- 90
2019-04-16 07:00:00 9.1 8 Oeste 15 Oeste 0 -- -- 89
2019-04-16 06:00:00 9.1 9 Oeste 22 Sudoeste 0 -- -- 90
2019-04-16 05:00:00 9.2 14 Oeste 30 Sudoeste 0 -- -- 92
2019-04-16 04:00:00 10.3 9 Sudoeste 15 Oeste 0 -- -- 90
2019-04-16 03:00:00 10.5 3 Sudeste 17 Sudeste 0 -- -- 87
2019-04-16 02:00:00 10.7 10 Este 26 Este 0 -- -- 85
2019-04-16 01:00:00 10.6 12 Este 35 Sudeste 0 -- -- 83
2019-04-16 00:00:00 10.7 13 Este 40 Este 0.2 -- -- 82
2019-04-15 23:00:00 11 24 Este 42 Este 0 -- -- 79
2019-04-15 22:00:00 11.1 23 Este 44 Este 0 -- -- 80
2019-04-15 21:00:00 11.2 22 Este 41 Este 0 -- -- 79
2019-04-15 20:00:00 12 21 Este 40 Nordeste 0 -- -- 75
2019-04-15 19:00:00 13.7 23 Este 42 Este 0 -- -- 67
2019-04-15 18:00:00 14.4 21 Este 46 Este 0 -- -- 64
2019-04-15 17:00:00 16.4 26 Este 44 Este 0 -- -- 58
2019-04-15 16:00:00 16.6 21 Este 46 Este 0 -- -- 60
2019-04-15 15:00:00 16.1 22 Este 43 Este 0 -- -- 62
2019-04-15 14:00:00 15.8 21 Este 44 Este 0 -- -- 62
2019-04-15 13:00:00 15.7 19 Este 46 Este 0 -- -- 65
2019-04-15 12:00:00 16.1 23 Este 44 Este 0 -- -- 62
2019-04-15 11:00:00 14.9 21 Este 50 Este 0 -- -- 64
2019-04-15 10:00:00 14.8 18 Este 48 Sudeste 0 -- -- 61
2019-04-15 09:00:00 13.5 15 Este 34 Este 0 -- -- 63
2019-04-15 08:00:00 11.5 15 Este 32 Este 0 -- -- 72
2019-04-15 07:00:00 11.2 14 Este 30 Este 0 -- -- 79
2019-04-15 06:00:00 11.2 13 Este 25 Este 0 -- -- 83
2019-04-15 05:00:00 10.7 9 Este 21 Este 0 -- -- 92
2019-04-15 04:00:00 11.2 6 Este 14 Sudeste 0 -- -- 85
2019-04-15 03:00:00 13.2 8 Este 15 Sudoeste 0 -- -- 74
2019-04-15 02:00:00 15.5 8 Sudoeste 18 Sur 0 -- -- 64
2019-04-15 01:00:00 15.9 4 Sur 13 Sudoeste 0 -- -- 63
2019-04-15 00:00:00 17.6 10 Sudoeste 14 Oeste 0 -- -- 57
2019-04-14 23:00:00 18.5 10 Oeste 22 Oeste 0 -- -- 54
2019-04-14 22:00:00 19.7 13 Oeste 20 Oeste 0 -- -- 50
2019-04-14 21:00:00 21 10 Oeste 49 Oeste 0 -- -- 45
2019-04-14 20:00:00 22.9 27 Oeste 42 Oeste 0 -- -- 39
2019-04-14 19:00:00 23.8 28 Oeste 50 Oeste 0 -- -- 36
2019-04-14 18:00:00 24.4 31 Oeste 59 Oeste 0 -- -- 35
2019-04-14 17:00:00 24 32 Oeste 49 Oeste 0 -- -- 35
2019-04-14 16:00:00 23.6 33 Oeste 54 Oeste 0 -- -- 35
2019-04-14 15:00:00 22.9 28 Oeste 55 Oeste 0 -- -- 35
2019-04-14 14:00:00 22.1 28 Oeste 48 Oeste 0 -- -- 34
2019-04-14 13:00:00 20.2 26 Oeste 45 Oeste 0 -- -- 32
2019-04-14 12:00:00 19.5 24 Oeste 47 Oeste 0 -- -- 31
2019-04-14 11:00:00 17.7 25 Oeste 39 Sudoeste 0 -- -- 33
2019-04-14 10:00:00 15.4 21 Oeste 35 Oeste 0 -- -- 34
2019-04-14 09:00:00 13.5 14 Oeste 22 Oeste 0 -- -- 32
2019-04-14 08:00:00 11.1 11 Oeste 22 Sudoeste 0 -- -- 31
2019-04-14 07:00:00 11.1 11 Sudoeste 18 Sudoeste 0 -- -- 28
2019-04-14 06:00:00 11.3 11 Oeste 22 Sudoeste 0 -- -- 26
2019-04-14 05:00:00 11.8 15 Sudoeste 23 Sudoeste 0 -- -- 26
2019-04-14 04:00:00 12.6 11 Sudoeste 17 Sudoeste 0 -- -- 24
2019-04-14 03:00:00 12.6 10 Sudoeste 15 Sudoeste 0 -- -- 24
2019-04-14 02:00:00 13.3 5 Sur 12 Sur 0 -- -- 23
2019-04-14 01:00:00 14 5 Sur 15 Sur 0 -- -- 22
2019-04-14 00:00:00 15 8 Sudoeste 15 Sur 0 -- -- 20
2019-04-13 23:00:00 15.1 9 Sur 16 Sudoeste 0 -- -- 24
2019-04-13 22:00:00 16.9 10 Sudoeste 14 Sudoeste 0 -- -- 21
2019-04-13 21:00:00 18 8 Sudoeste 13 Sudoeste 0 -- -- 20
2019-04-13 20:00:00 20.6 9 Oeste 26 Oeste 0 -- -- 16
2019-04-13 19:00:00 21.3 16 Oeste 29 Oeste 0 -- -- 15
2019-04-13 18:00:00 21.7 16 Oeste 27 Oeste 0 -- -- 16
2019-04-13 17:00:00 21 17 Oeste 30 Noroeste 0 -- -- 16
2019-04-13 16:00:00 20.8 13 Oeste 26 Sudoeste 0 -- -- 20
2019-04-13 15:00:00 19.2 12 Oeste 24 Sudoeste 0 -- -- 25
2019-04-13 14:00:00 17.6 13 Oeste 28 Sudoeste 0 -- -- 31
2019-04-13 13:00:00 15.8 14 Oeste 33 Sudoeste 0 -- -- 36
2019-04-13 12:00:00 14 16 Oeste 30 Oeste 0 -- -- 40
2019-04-13 11:00:00 12.1 16 Oeste 32 Oeste 0 -- -- 47
2019-04-13 10:00:00 10.2 15 Oeste 25 Oeste 0 -- -- 53
2019-04-13 09:00:00 8 12 Sudoeste 19 Sudoeste 0 -- -- 58
2019-04-13 08:00:00 6.5 11 Sudoeste 19 Sudoeste 0 -- -- 62
2019-04-13 07:00:00 6.8 9 Sudoeste 17 Oeste 0 -- -- 62
2019-04-13 06:00:00 7.3 12 Sudoeste 21 Sudoeste 0 -- -- 61
2019-04-13 05:00:00 7.8 10 Sudoeste 21 Sudoeste 0 -- -- 60
2019-04-13 04:00:00 8.6 13 Sudoeste 20 Sudoeste 0 -- -- 58
2019-04-13 03:00:00 9 7 Sudoeste 18 Sudoeste 0 -- -- 56
2019-04-13 02:00:00 9.8 11 Sudoeste 24 Sudoeste 0 -- -- 52
2019-04-13 01:00:00 10.9 17 Sudoeste 25 Sudoeste 0 -- -- 50
2019-04-13 00:00:00 11.7 14 Oeste 30 Oeste 0 -- -- 52
2019-04-12 23:00:00 12.5 18 Sudoeste 28 Sudoeste 0 -- -- 49
2019-04-12 22:00:00 13.2 12 Oeste 22 Oeste 0 -- -- 45
2019-04-12 21:00:00 15 11 Oeste 30 Oeste 0 -- -- 37
2019-04-12 20:00:00 17.3 19 Oeste 32 Sudoeste 0 -- -- 34
2019-04-12 19:00:00 18.5 18 Oeste 35 Oeste 0 -- -- 31
2019-04-12 18:00:00 18.7 22 Oeste 36 Sudoeste 0 -- -- 32
2019-04-12 17:00:00 18.5 23 Oeste 42 Sudoeste 0 -- -- 32
2019-04-12 16:00:00 18 23 Oeste 37 Oeste 0 -- -- 37
2019-04-12 15:00:00 17 23 Oeste 39 Oeste 0 -- -- 41
2019-04-12 14:00:00 16 22 Oeste 41 Oeste 0 -- -- 47
2019-04-12 13:00:00 14.4 26 Oeste 40 Sudoeste 0 -- -- 51
2019-04-12 12:00:00 13.1 22 Oeste 42 Oeste 0 -- -- 57
2019-04-12 11:00:00 11.1 23 Oeste 35 Oeste 0 -- -- 66
2019-04-12 10:00:00 8.5 18 Oeste 33 Sudoeste 0 -- -- 76
2019-04-12 09:00:00 7.6 20 Sudoeste 34 Oeste 0 -- -- 77
2019-04-12 08:00:00 6.9 17 Sudoeste 32 Sudoeste 0 -- -- 79
2019-04-12 07:00:00 7.1 20 Sudoeste 32 Oeste 0 -- -- 79
2019-04-12 06:00:00 7.1 19 Oeste 34 Sudoeste 0 -- -- 78
2019-04-12 05:00:00 7.5 21 Sudoeste 38 Sudoeste 0 -- -- 76
2019-04-12 04:00:00 7.7 24 Sudoeste 39 Sudoeste 0 -- -- 75
2019-04-12 03:00:00 8.1 22 Oeste 40 Sudoeste 0 -- -- 70
2019-04-12 02:00:00 8.5 25 Sudoeste 43 Sudoeste 0 -- -- 67
2019-04-12 01:00:00 8.9 22 Oeste 39 Oeste 0 -- -- 69
2019-04-12 00:00:00 9.7 21 Sudoeste 37 Sudoeste 0 -- -- 70
2019-04-11 23:00:00 10.4 19 Oeste 42 Sudoeste 0 -- -- 67
2019-04-11 22:00:00 11.7 19 Oeste 41 Oeste 0 -- -- 57
2019-04-11 21:00:00 12.8 26 Oeste 41 Oeste 0 -- -- 56
2019-04-11 20:00:00 14.2 29 Oeste 55 Oeste 0 -- -- 53
2019-04-11 19:00:00 15.7 34 Oeste 56 Oeste 0 -- -- 47
2019-04-11 18:00:00 17 35 Oeste 57 Oeste 0 -- -- 41
2019-04-11 17:00:00 16.9 36 Oeste 53 Oeste 0 -- -- 44
2019-04-11 16:00:00 17.3 33 Oeste 48 Oeste 0 -- -- 44
2019-04-11 15:00:00 16.6 28 Oeste 50 Oeste 0 -- -- 43
2019-04-11 14:00:00 15.6 27 Oeste 48 Oeste 0 -- -- 44
2019-04-11 13:00:00 14.1 27 Oeste 45 Oeste 0 -- -- 49
2019-04-11 12:00:00 12.6 24 Oeste 45 Oeste 0 -- -- 57
2019-04-11 11:00:00 11.1 26 Oeste 40 Oeste 0 -- -- 62
2019-04-11 10:00:00 9.5 24 Oeste 44 Oeste 0 -- -- 71
2019-04-11 09:00:00 8.1 23 Oeste 36 Oeste 0 -- -- 77
2019-04-11 08:00:00 6.9 21 Oeste 37 Oeste 0 -- -- 81
2019-04-11 07:00:00 6.9 25 Sudoeste 36 Sudoeste 0 -- -- 80
2019-04-11 06:00:00 6.9 18 Oeste 33 Sudoeste 0 -- -- 80
2019-04-11 05:00:00 7.2 21 Oeste 33 Oeste 0 -- -- 80
2019-04-11 04:00:00 7.5 20 Sudoeste 34 Oeste 0 -- -- 78
2019-04-11 03:00:00 7.9 20 Oeste 37 Oeste 0 -- -- 76
2019-04-11 02:00:00 8.6 22 Oeste 37 Sudoeste 0 -- -- 74
2019-04-11 01:00:00 9.5 23 Sudoeste 38 Sudoeste 0 -- -- 71
2019-04-11 00:00:00 10.5 16 Oeste 31 Oeste 0 -- -- 64
2019-04-10 23:00:00 11.3 18 Oeste 30 Oeste 0 -- -- 62
2019-04-10 22:00:00 11.9 12 Oeste 23 Oeste 0 -- -- 59
2019-04-10 21:00:00 12.3 14 Oeste 24 Sudoeste 0 -- -- 59
2019-04-10 20:00:00 12.3 13 Oeste 39 Oeste 0.2 -- -- 64
2019-04-10 19:00:00 14.4 27 Oeste 44 Oeste 0 -- -- 49
2019-04-10 18:00:00 17.6 15 Oeste 31 Oeste 0 -- -- 39
2019-04-10 17:00:00 17.2 17 Oeste 32 Oeste 0 -- -- 40
2019-04-10 16:00:00 16.5 21 Oeste 38 Oeste 0 -- -- 44
2019-04-10 15:00:00 15 26 Oeste 37 Oeste 0 -- -- 49
2019-04-10 14:00:00 13.5 28 Oeste 45 Oeste 0 -- -- 53
2019-04-10 13:00:00 12.7 29 Oeste 44 Oeste 0 -- -- 57
2019-04-10 12:00:00 12.6 25 Oeste 40 Oeste 0 -- -- 58
2019-04-10 11:00:00 11 27 Oeste 41 Oeste 0 -- -- 64
2019-04-10 10:00:00 10.3 25 Oeste 42 Oeste 0 -- -- 65
2019-04-10 09:00:00 9.2 17 Oeste 29 Oeste 0 -- -- 71
2019-04-10 08:00:00 7.3 10 Oeste 18 Oeste 0 -- -- 79
2019-04-10 07:00:00 7.4 13 Oeste 28 Oeste 0 -- -- 80
2019-04-10 06:00:00 7.5 18 Oeste 29 Oeste 0 -- -- 82
2019-04-10 05:00:00 7.7 18 Oeste 29 Oeste 0 -- -- 83
2019-04-10 04:00:00 8.2 16 Oeste 37 Oeste 0 -- -- 83
2019-04-10 03:00:00 9.1 19 Oeste 40 Sudoeste 0 -- -- 79
2019-04-10 02:00:00 9.6 16 Oeste 29 Oeste 0 -- -- 74
2019-04-10 01:00:00 10 14 Oeste 24 Oeste 0 -- -- 70
2019-04-10 00:00:00 9.9 12 Oeste 27 Sudoeste 0 -- -- 68
2019-04-09 23:00:00 10.1 18 Oeste 31 Sudoeste 0 -- -- 65
2019-04-09 22:00:00 10.7 18 Oeste 45 Oeste 0 -- -- 62
2019-04-09 21:00:00 12 16 Oeste 36 Oeste 0 -- -- 59
2019-04-09 20:00:00 13.5 16 Sudoeste 37 Oeste 0 -- -- 52
2019-04-09 19:00:00 16.5 22 Oeste 36 Sudoeste 0 -- -- 40
2019-04-09 18:00:00 16.6 19 Oeste 36 Oeste 0 -- -- 37
2019-04-09 17:00:00 17.1 23 Oeste 37 Oeste 0 -- -- 37
2019-04-09 16:00:00 16.3 21 Oeste 39 Sudoeste 0 -- -- 39
2019-04-09 15:00:00 16.4 22 Sudoeste 40 Oeste 0 -- -- 40
2019-04-09 14:00:00 16 22 Oeste 38 Oeste 0 -- -- 42
2019-04-09 13:00:00 14.9 24 Oeste 43 Oeste 0 -- -- 47
2019-04-09 12:00:00 13.5 26 Oeste 44 Oeste 0 -- -- 56
2019-04-09 11:00:00 12 28 Oeste 38 Oeste 0 -- -- 62
2019-04-09 10:00:00 10.7 20 Oeste 36 Oeste 0 -- -- 72
2019-04-09 09:00:00 8.9 16 Oeste 26 Oeste 0 -- -- 79
2019-04-09 08:00:00 7.7 7 Oeste 14 Oeste 0 -- -- 89
2019-04-09 07:00:00 7.7 9 Oeste 14 Oeste 0 -- -- 90
2019-04-09 06:00:00 8.6 8 Oeste 22 Oeste 0 -- -- 82
2019-04-09 05:00:00 8.9 14 Oeste 24 Sudoeste 0 -- -- 78
2019-04-09 04:00:00 9.2 9 Sudoeste 20 Sudoeste 0 -- -- 81
2019-04-09 03:00:00 9.1 9 Sur 13 Sur 0 -- -- 87
2019-04-09 02:00:00 9.1 8 Sudoeste 16 Sudoeste 0 -- -- 89
2019-04-09 01:00:00 11.4 13 Sudoeste 19 Sudoeste 0 -- -- 78
2019-04-09 00:00:00 11.2 6 Sudoeste 14 Sur 0 -- -- 84
2019-04-08 23:00:00 11.9 9 Sur 12 Sur 0 -- -- 81
2019-04-08 22:00:00 12.3 5 Sudeste 26 Oeste 1.8 -- -- 82
2019-04-08 21:00:00 15.8 6 Sudoeste 13 Oeste 0 -- -- 58
2019-04-08 20:00:00 17.3 6 Oeste 16 Oeste 0 -- -- 51
2019-04-08 19:00:00 18.7 9 Oeste 23 Noroeste 0 -- -- 47
2019-04-08 18:00:00 18.9 17 Noroeste 27 Noroeste 0 -- -- 47
2019-04-08 17:00:00 18.7 17 Oeste 34 Sudoeste 0 -- -- 49
2019-04-08 16:00:00 18.2 23 Oeste 38 Oeste 0 -- -- 49
2019-04-08 15:00:00 16.9 28 Oeste 40 Oeste 0 -- -- 53
2019-04-08 14:00:00 16 16 Oeste 29 Oeste 0 -- -- 60
2019-04-08 13:00:00 13.7 12 Oeste 25 Oeste 0 -- -- 75
2019-04-08 12:00:00 14.1 13 Oeste 23 Sudoeste 0 -- -- 64
2019-04-08 11:00:00 11.7 4 Oeste 10 Oeste 0 -- -- 74
2019-04-08 10:00:00 10.3 4 Sudoeste 9 Sur 0 -- -- 78
2019-04-08 09:00:00 7.7 4 Sudeste 7 Sudeste 0 -- -- 77
2019-04-08 08:00:00 7.8 3 Oeste 6 Oeste 0 -- -- 69
2019-04-08 07:00:00 8.3 2 Noroeste 6 Sudoeste 0 -- -- 62
2019-04-08 06:00:00 9.5 4 Sudoeste 8 Sudoeste 0 -- -- 54
2019-04-08 05:00:00 9 4 Sudoeste 11 Sudoeste 0 -- -- 54
2019-04-08 04:00:00 9 6 Sudoeste 12 Sudoeste 0 -- -- 56
2019-04-08 03:00:00 9.3 6 Sudoeste 15 Sur 0 -- -- 55
2019-04-08 02:00:00 9.6 12 Sur 17 Sur 0 -- -- 53
2019-04-08 01:00:00 9.5 13 Sur 16 Sur 0 -- -- 55
2019-04-08 00:00:00 10.2 13 Sur 17 Sur 0 -- -- 55
2019-04-07 23:00:00 11.5 4 Sudoeste 9 Sudoeste 0 -- -- 53
2019-04-07 22:00:00 11.9 6 Sudoeste 9 Sudoeste 0 -- -- 51
2019-04-07 21:00:00 12.2 5 Oeste 21 Oeste 0 -- -- 49
2019-04-07 20:00:00 14.3 16 Oeste 33 Oeste 0 -- -- 43
2019-04-07 19:00:00 15.2 21 Oeste 45 Oeste 0 -- -- 40
2019-04-07 18:00:00 14.8 30 Oeste 47 Oeste 0 -- -- 40
2019-04-07 17:00:00 14.6 29 Oeste 51 Oeste 0 -- -- 42
2019-04-07 16:00:00 14.1 27 Oeste 49 Oeste 0 -- -- 48
2019-04-07 15:00:00 13.7 28 Oeste 51 Oeste 0 -- -- 51
2019-04-07 14:00:00 12.8 26 Oeste 48 Oeste 0 -- -- 55
2019-04-07 13:00:00 11.7 31 Oeste 57 Oeste 0 -- -- 55
2019-04-07 12:00:00 10.4 33 Oeste 49 Oeste 0 -- -- 63
2019-04-07 11:00:00 9.4 23 Oeste 40 Oeste 0 -- -- 76
2019-04-07 10:00:00 7.2 25 Oeste 39 Oeste 0 -- -- 86
2019-04-07 09:00:00 6.7 25 Oeste 40 Oeste 0 -- -- 84
2019-04-07 08:00:00 6.3 23 Oeste 31 Oeste 0 -- -- 82
2019-04-07 07:00:00 6.3 18 Oeste 26 Oeste 0 -- -- 84
2019-04-07 06:00:00 6.1 10 Oeste 21 Oeste 0 -- -- 85
2019-04-07 05:00:00 5.9 12 Oeste 19 Oeste 0 -- -- 84
2019-04-07 04:00:00 6.1 9 Oeste 17 Oeste 0 -- -- 83
2019-04-07 03:00:00 6.3 7 Oeste 22 Oeste 0 -- -- 82
2019-04-07 02:00:00 6.8 6 Sudoeste 12 Sudoeste 0 -- -- 77
2019-04-07 01:00:00 6.9 10 Sudoeste 19 Sudoeste 0 -- -- 77
2019-04-07 00:00:00 7.1 9 Sudoeste 21 Sudoeste 0 -- -- 80
2019-04-06 23:00:00 7 2 Sur 9 Sudeste 0 -- -- 81
2019-04-06 22:00:00 6.9 3 Sudeste 19 Este 0.4 -- -- 84
2019-04-06 21:00:00 7.8 5 Noroeste 20 Noroeste 1 -- -- 82
2019-04-06 20:00:00 8.3 8 Este 20 Sudeste 0 -- -- 80
2019-04-06 19:00:00 9.6 11 Sur 50 Sudoeste 1.6 -- -- 77
2019-04-06 18:00:00 13.5 3 Oeste 24 Oeste 0 -- -- 40
2019-04-06 17:00:00 14.6 12 Sudoeste 31 Oeste 0 -- -- 38
2019-04-06 16:00:00 13.6 17 Oeste 36 Oeste 0 -- -- 44
2019-04-06 15:00:00 12.1 17 Oeste 32 Oeste 0 -- -- 48
2019-04-06 14:00:00 12.1 19 Oeste 28 Oeste 0 -- -- 48
2019-04-06 13:00:00 10.8 13 Oeste 34 Sudoeste 0 -- -- 59
2019-04-06 12:00:00 11 19 Oeste 31 Oeste 0 -- -- 56
2019-04-06 11:00:00 9.6 13 Oeste 24 Oeste 0 -- -- 68
2019-04-06 10:00:00 8.3 12 Sudoeste 21 Sudoeste 0 -- -- 71
2019-04-06 09:00:00 6.5 14 Sudoeste 25 Sudoeste 0 -- -- 78
2019-04-06 08:00:00 5.1 12 Sudoeste 21 Oeste 0 -- -- 85
2019-04-06 07:00:00 4.5 11 Oeste 17 Oeste 0 -- -- 91
2019-04-06 06:00:00 5.2 8 Oeste 14 Oeste 0 -- -- 90
2019-04-06 05:00:00 5 10 Sudoeste 15 Sudoeste 0 -- -- 93
2019-04-06 04:00:00 4.9 8 Oeste 21 Oeste 0 -- -- 93
2019-04-06 03:00:00 4.9 13 Oeste 22 Sudoeste 0 -- -- 94
2019-04-06 02:00:00 4.9 10 Oeste 25 Sudoeste 0 -- -- 94
2019-04-06 01:00:00 5.4 13 Oeste 49 Oeste 0 -- -- 93
2019-04-06 00:00:00 8.5 7 Sudoeste 13 Sudoeste 0 -- -- 94
2019-04-05 23:00:00 8.7 5 Sudeste 15 Sudeste 0 -- -- 92
2019-04-05 22:00:00 8.6 9 Este 19 Este 0 -- -- 92
2019-04-05 21:00:00 8.7 6 Este 12 Sudeste 0 -- -- 93
2019-04-05 20:00:00 8.9 4 Este 16 Sudeste 1 -- -- 94
2019-04-05 19:00:00 9.2 9 Sur 19 Sudoeste 1.2 -- -- 93
2019-04-05 18:00:00 8.7 13 Oeste 37 Sudoeste 2.6 -- -- 87
2019-04-05 17:00:00 14.6 15 Este 39 Este 0 -- -- 52
2019-04-05 16:00:00 15.6 14 Este 32 Este 0 -- -- 50
2019-04-05 15:00:00 16.2 15 Este 35 Sudeste 0 -- -- 47
2019-04-05 14:00:00 15.5 3 Nordeste 23 Sudeste 0 -- -- 43
2019-04-05 13:00:00 14.9 7 Sur 23 Sur 0 -- -- 50
2019-04-05 12:00:00 14.6 9 Sudoeste 20 Sur 0 -- -- 48
2019-04-05 11:00:00 11.9 4 Este 12 Este 0 -- -- 74
2019-04-05 10:00:00 9.5 5 Este 9 Nordeste 0.2 -- -- 91
2019-04-05 09:00:00 9.6 3 Este 18 Este 0 -- -- 86
2019-04-05 08:00:00 9.4 9 Este 20 Este 0 -- -- 83
2019-04-05 07:00:00 9.4 10 Este 24 Este 0 -- -- 82
2019-04-05 06:00:00 9.4 10 Este 23 Sudeste 0 -- -- 78
2019-04-05 05:00:00 9.2 9 Este 26 Sudeste 0 -- -- 71
2019-04-05 04:00:00 8.6 11 Sudeste 26 Sudeste 0 -- -- 71
2019-04-05 03:00:00 8.1 13 Sudeste 26 Sudeste 0 -- -- 73
2019-04-05 02:00:00 7.8 6 Este 19 Sudeste 0 -- -- 68
2019-04-05 01:00:00 8.2 8 Este 24 Sudeste 0 -- -- 67
2019-04-05 00:00:00 8.3 11 Este 31 Este 0 -- -- 68
2019-04-04 23:00:00 8.8 15 Este 29 Sudeste 0 -- -- 60
2019-04-04 22:00:00 8.5 7 Este 24 Sudeste 0 -- -- 57
2019-04-04 21:00:00 9.8 7 Este 18 Este 0 -- -- 51
2019-04-04 20:00:00 12.3 3 Nordeste 13 Norte 0 -- -- 34
2019-04-04 19:00:00 13.8 3 Oeste 17 Oeste 0 -- -- 30
2019-04-04 18:00:00 14.3 12 Noroeste 30 Sudoeste 0 -- -- 29
2019-04-04 17:00:00 13.7 13 Oeste 34 Noroeste 0 -- -- 31
2019-04-04 16:00:00 13.5 14 Oeste 36 Oeste 0 -- -- 33
2019-04-04 15:00:00 11.8 19 Oeste 36 Oeste 0 -- -- 38
2019-04-04 14:00:00 10.5 20 Oeste 42 Oeste 0 -- -- 43
2019-04-04 13:00:00 9.4 28 Oeste 44 Oeste 0 -- -- 45
2019-04-04 12:00:00 8.6 23 Oeste 46 Oeste 0 -- -- 50
2019-04-04 11:00:00 7.4 25 Oeste 42 Oeste 0 -- -- 52
2019-04-04 10:00:00 5.5 24 Oeste 40 Oeste 0 -- -- 61
2019-04-04 09:00:00 3.4 15 Oeste 26 Oeste 0 -- -- 71
2019-04-04 08:00:00 2 17 Oeste 30 Oeste 0 -- -- 75
2019-04-04 07:00:00 1.6 18 Oeste 27 Oeste 0 -- -- 78
2019-04-04 06:00:00 1.6 13 Oeste 20 Oeste 0 -- -- 79
2019-04-04 05:00:00 1.9 11 Oeste 19 Oeste 0 -- -- 78
2019-04-04 04:00:00 3 14 Oeste 24 Sudoeste 0 -- -- 75
2019-04-04 03:00:00 3.8 18 Oeste 33 Oeste 0 -- -- 73
2019-04-04 02:00:00 4.3 18 Oeste 36 Oeste 0 -- -- 75
2019-04-04 01:00:00 5 24 Oeste 37 Oeste 0 -- -- 76
2019-04-04 00:00:00 5.3 22 Oeste 35 Oeste 0 -- -- 76
2019-04-03 23:00:00 5.7 20 Oeste 37 Oeste 0 -- -- 75
2019-04-03 22:00:00 6.1 21 Oeste 33 Oeste 0 -- -- 76
2019-04-03 21:00:00 6.3 18 Oeste 32 Sudoeste 0 -- -- 86
2019-04-03 20:00:00 6.7 16 Sudoeste 24 Sudoeste 0.2 -- -- 88
2019-04-03 19:00:00 7.3 14 Oeste 31 Oeste 0 -- -- 81
2019-04-03 18:00:00 8.8 21 Oeste 32 Oeste 0 -- -- 67
2019-04-03 17:00:00 9.2 25 Oeste 35 Oeste 0 -- -- 71
2019-04-03 16:00:00 10.9 23 Oeste 33 Oeste 0 -- -- 61
2019-04-03 15:00:00 12.2 21 Oeste 29 Oeste 0 -- -- 63
2019-04-03 14:00:00 12.8 16 Oeste 26 Oeste 0 -- -- 64
2019-04-03 13:00:00 12.3 16 Oeste 24 Noroeste 0 -- -- 65
2019-04-03 12:00:00 11.1 12 Oeste 22 Oeste 0 -- -- 72
2019-04-03 11:00:00 10 10 Oeste 20 Sudoeste 0 -- -- 77
2019-04-03 10:00:00 9 10 Oeste 17 Sudoeste 0 -- -- 82
2019-04-03 09:00:00 8.7 6 Sudoeste 12 Sudoeste 0 -- -- 83
2019-04-03 08:00:00 8.3 6 Sudoeste 9 Sudoeste 0 -- -- 84
2019-04-03 07:00:00 8.6 4 Oeste 13 Oeste 0 -- -- 83
2019-04-03 06:00:00 9.8 8 Oeste 13 Oeste 0 -- -- 77
2019-04-03 05:00:00 10.9 7 Sur 10 Sur 0 -- -- 70
2019-04-03 04:00:00 10.8 5 Sudoeste 8 Sudoeste 0 -- -- 71
2019-04-03 03:00:00 11.7 6 Sudoeste 9 Sudoeste 0 -- -- 66
2019-04-03 02:00:00 11.9 5 Sur 14 Sur 0 -- -- 66
2019-04-03 01:00:00 12 11 Sur 19 Sudoeste 0 -- -- 66
2019-04-03 00:00:00 12.1 10 Sudoeste 19 Sur 0 -- -- 67
2019-04-02 23:00:00 12.5 14 Sudoeste 21 Sudoeste 0 -- -- 67
2019-04-02 22:00:00 13.6 9 Sudoeste 22 Sudoeste 0 -- -- 64
2019-04-02 21:00:00 14.7 12 Sudoeste 19 Oeste 0 -- -- 53
2019-04-02 20:00:00 16.8 13 Oeste 24 Oeste 0 -- -- 51
2019-04-02 19:00:00 18.5 9 Oeste 23 Oeste 0 -- -- 49
2019-04-02 18:00:00 19.5 12 Oeste 20 Oeste 0 -- -- 46
2019-04-02 17:00:00 18.8 9 Sudoeste 23 Sudoeste 0 -- -- 51
2019-04-02 16:00:00 18.3 14 Sudoeste 26 Oeste 0 -- -- 57
2019-04-02 15:00:00 16.6 12 Oeste 23 Sudoeste 0 -- -- 66
2019-04-02 14:00:00 15.4 14 Oeste 27 Oeste 0 -- -- 74
2019-04-02 13:00:00 14.1 19 Oeste 30 Oeste 0 -- -- 80
2019-04-02 12:00:00 14.7 12 Oeste 19 Sudoeste 0 -- -- 74
2019-04-02 11:00:00 13.2 9 Noroeste 19 Oeste 0 -- -- 80
2019-04-02 10:00:00 10.9 6 Oeste 12 Oeste 0 -- -- 79
2019-04-02 09:00:00 9.9 4 Sudoeste 11 Sudoeste 0 -- -- 82
2019-04-02 08:00:00 9.4 7 Sudoeste 11 Sudoeste 0 -- -- 82
2019-04-02 07:00:00 9.5 4 Sudoeste 10 Sudoeste 0 -- -- 76
2019-04-02 06:00:00 9.9 4 Sudoeste 9 Sur 0 -- -- 73
2019-04-02 05:00:00 10 5 Sur 9 Sur 0 -- -- 74
2019-04-02 04:00:00 9.8 9 Sur 14 Sur 0 -- -- 71
2019-04-02 03:00:00 9.6 10 Sur 17 Sur 0 -- -- 67
2019-04-02 02:00:00 10.1 8 Sudeste 12 Sudeste 0 -- -- 62
2019-04-02 01:00:00 10.5 8 Sudeste 13 Sudeste 0 -- -- 60
2019-04-02 00:00:00 10.8 4 Este 12 Este 0 -- -- 63
2019-04-01 23:00:00 11.5 4 Este 13 Este 0 -- -- 60
2019-04-01 22:00:00 11.7 5 Este 15 Sudeste 0 -- -- 63
2019-04-01 21:00:00 12.3 6 Este 15 Este 0 -- -- 56
2019-04-01 20:00:00 13.8 5 Este 16 Este 0 -- -- 50
2019-04-01 19:00:00 15.3 8 Este 18 Este 0 -- -- 46
2019-04-01 18:00:00 15.7 7 Este 17 Sudeste 0 -- -- 47
2019-04-01 17:00:00 16 5 Este 15 Sudeste 0 -- -- 59
2019-04-01 16:00:00 14.2 4 Sudoeste 9 Noroeste 0 -- -- 70
2019-04-01 15:00:00 12.8 4 Noroeste 8 Oeste 0 -- -- 78
2019-04-01 14:00:00 11.2 4 Oeste 9 Oeste 0 -- -- 87
2019-04-01 13:00:00 10.4 3 Oeste 10 Oeste 0 -- -- 88
2019-04-01 12:00:00 9.8 4 Oeste 11 Oeste 0 -- -- 95
2019-04-01 11:00:00 9.2 6 Oeste 12 Oeste 0 -- -- 100
2019-04-01 10:00:00 8.6 6 Oeste 13 Oeste 0 -- -- 100
2019-04-01 09:00:00 8.2 7 Sudoeste 11 Oeste 0 -- -- 100
2019-04-01 08:00:00 8.2 3 Oeste 6 Oeste 0 -- -- 100
2019-04-01 07:00:00 8.2 4 Oeste 9 Oeste 0 -- -- 100
2019-04-01 06:00:00 8.2 5 Oeste 9 Oeste 0 -- -- 100
2019-04-01 05:00:00 8.2 4 Oeste 9 Oeste 0.2 -- -- 99
2019-04-01 04:00:00 8.2 4 Oeste 7 Oeste 0.4 -- -- 99
2019-04-01 03:00:00 8.3 4 Oeste 8 Oeste 0 -- -- 99
2019-04-01 02:00:00 8.5 5 Oeste 11 Oeste 0.2 -- -- 98
2019-04-01 01:00:00 8.9 5 Oeste 8 Oeste 0 -- -- 98
2019-04-01 00:00:00 9.2 5 Oeste 6 Oeste 0 -- -- 96
2019-03-31 23:00:00 9.5 4 Oeste 6 Sudoeste 0 -- -- 95
2019-03-31 22:00:00 9.8 2 Oeste -- -- 0 -- -- 92
2019-03-31 21:00:00 10.4 0 Calma 3 Noroeste 0.4 -- -- 92
2019-03-31 20:00:00 10.9 0 Calma 3 Este 0.8 -- -- 87
2019-03-31 19:00:00 11.4 2 Nordeste 9 Norte 0 -- -- 81
2019-03-31 18:00:00 11.7 0 Calma 4 Nordeste 0 -- -- 81
2019-03-31 17:00:00 11.8 0 Calma 4 Este 0.4 -- -- 76
2019-03-31 16:00:00 12.3 3 Nordeste 8 Nordeste 0 -- -- 70
2019-03-31 15:00:00 11.6 4 Norte 9 Noroeste 0 -- -- 72
2019-03-31 14:00:00 11 4 Oeste 8 Oeste 0 -- -- 74
2019-03-31 13:00:00 10.5 3 Oeste 8 Oeste 0 -- -- 75
2019-03-31 12:00:00 8.6 3 Norte 7 Norte 0 -- -- 84
2019-03-31 11:00:00 7.1 3 Oeste 5 Oeste 0 -- -- 90
2019-03-31 10:00:00 6.5 3 Noroeste 8 Sur 0 -- -- 92
2019-03-31 09:00:00 7.5 4 Este 15 Este 0 -- -- 93
2019-03-31 08:00:00 6.5 7 Este 13 Sudeste 0 -- -- 95
2019-03-31 07:00:00 5.9 8 Este 13 Nordeste 0 -- -- 94
2019-03-31 06:00:00 6.3 8 Nordeste 12 Este 0 -- -- 93
2019-03-31 05:00:00 6.5 7 Este 14 Este 0 -- -- 92
2019-03-31 03:00:00 7.5 14 Este 20 Este 0 -- -- 89
2019-03-31 01:00:00 7.6 15 Nordeste 22 Este 0 -- -- 90
2019-03-31 00:00:00 8.2 14 Este 20 Este 0 -- -- 88
2019-03-30 23:00:00 9 16 Este 23 Este 0 -- -- 81
2019-03-30 22:00:00 9.3 11 Este 27 Este 0 -- -- 78
2019-03-30 21:00:00 9.6 9 Este 22 Este 0 -- -- 77
2019-03-30 20:00:00 10.1 11 Este 26 Este 0 -- -- 72
2019-03-30 19:00:00 11.9 14 Este 31 Este 0 -- -- 62
2019-03-30 18:00:00 14 16 Este 32 Este 0 -- -- 51
2019-03-30 17:00:00 15.6 14 Este 28 Este 0 -- -- 46
2019-03-30 16:00:00 16.4 15 Este 36 Este 0 -- -- 42
2019-03-30 15:00:00 16.8 16 Este 35 Este 0 -- -- 38
2019-03-30 14:00:00 16.7 14 Este 29 Este 0 -- -- 38
2019-03-30 13:00:00 15.9 11 Este 23 Este 0 -- -- 48
2019-03-30 12:00:00 15.5 9 Este 27 Sudeste 0 -- -- 46
2019-03-30 11:00:00 14 11 Este 24 Nordeste 0 -- -- 50
2019-03-30 10:00:00 12.8 10 Este 20 Nordeste 0 -- -- 60
2019-03-30 09:00:00 10.8 9 Este 20 Este 0 -- -- 77
2019-03-30 08:00:00 8.1 10 Este 15 Este 0 -- -- 91
2019-03-30 07:00:00 6.1 6 Este 17 Este 0 -- -- 95
2019-03-30 06:00:00 6.2 11 Este 16 Este 0 -- -- 96
2019-03-30 05:00:00 6.1 14 Este 17 Este 0 -- -- 96
2019-03-30 04:00:00 6.3 13 Este 22 Este 0 -- -- 94
2019-03-30 03:00:00 6.7 13 Este 18 Este 0 -- -- 93
2019-03-30 02:00:00 7.3 14 Este 19 Este 0 -- -- 91
2019-03-30 01:00:00 7.8 12 Este 21 Este 0 -- -- 87
2019-03-30 00:00:00 8 10 Este 18 Este 0 -- -- 83
2019-03-29 23:00:00 8 4 Este 19 Sudeste 0 -- -- 80
2019-03-29 22:00:00 8.6 6 Este 19 Este 0 -- -- 79
2019-03-29 21:00:00 9.1 9 Este 22 Este 0 -- -- 68
2019-03-29 20:00:00 10.5 10 Este 28 Este 0 -- -- 50
2019-03-29 19:00:00 12.5 13 Este 32 Este 0 -- -- 45
2019-03-29 18:00:00 14.5 14 Este 35 Este 0 -- -- 43
2019-03-29 17:00:00 15.9 15 Este 34 Este 0 -- -- 42
2019-03-29 16:00:00 17 15 Este 33 Este 0 -- -- 41
2019-03-29 15:00:00 17.1 15 Sudeste 33 Este 0 -- -- 44
2019-03-29 14:00:00 17.2 14 Sudeste 34 Sudeste 0 -- -- 41
2019-03-29 13:00:00 16.7 13 Este 31 Sudeste 0 -- -- 37
2019-03-29 12:00:00 16.3 13 Sudeste 28 Sudeste 0 -- -- 42
2019-03-29 11:00:00 15.3 19 Sudeste 30 Sudeste 0 -- -- 37
2019-03-29 10:00:00 14.1 4 Este 10 Este 0 -- -- 49
2019-03-29 09:00:00 11.3 2 Nordeste 5 Nordeste 0 -- -- 56
2019-03-29 08:00:00 8.6 3 Nordeste 8 Este 0 -- -- 72
2019-03-29 07:00:00 6.9 7 Este 10 Nordeste 0 -- -- 79
2019-03-29 06:00:00 6.9 8 Nordeste 10 Nordeste 0 -- -- 77
2019-03-29 05:00:00 7.4 7 Este 10 Este 0 -- -- 73
2019-03-29 04:00:00 8 6 Este 13 Este 0 -- -- 63
2019-03-29 03:00:00 7.7 6 Este 15 Este 0 -- -- 67
2019-03-29 02:00:00 7.9 12 Este 21 Este 0 -- -- 69
2019-03-29 01:00:00 8.6 11 Este 24 Nordeste 0 -- -- 68
2019-03-29 00:00:00 9.1 14 Este 23 Este 0 -- -- 61
2019-03-28 23:00:00 10.2 12 Este 25 Este 0 -- -- 46
2019-03-28 22:00:00 10.6 11 Este 28 Sudeste 0 -- -- 51
2019-03-28 21:00:00 11.5 16 Sudeste 32 Sudeste 0 -- -- 37
2019-03-28 20:00:00 12.3 16 Sudeste 30 Sudeste 0 -- -- 37
2019-03-28 19:00:00 14.2 13 Sudeste 29 Sudeste 0 -- -- 32
2019-03-28 18:00:00 16.3 14 Sudeste 29 Sudeste 0 -- -- 29
2019-03-28 17:00:00 18.1 12 Este 24 Este 0 -- -- 29
2019-03-28 16:00:00 19.2 8 Oeste 17 Oeste 0 -- -- 28
2019-03-28 15:00:00 18.2 6 Sudoeste 20 Oeste 0 -- -- 32
2019-03-28 14:00:00 17.3 6 Sudoeste 17 Oeste 0 -- -- 35
2019-03-28 13:00:00 15.6 4 Oeste 28 Noroeste 0 -- -- 41
2019-03-28 12:00:00 14.1 12 Oeste 21 Oeste 0 -- -- 46
2019-03-28 11:00:00 12.4 14 Oeste 23 Oeste 0 -- -- 50
2019-03-28 10:00:00 10.4 13 Oeste 23 Oeste 0 -- -- 54
2019-03-28 09:00:00 8.6 14 Oeste 28 Sudoeste 0 -- -- 60
2019-03-28 08:00:00 6.5 10 Sudoeste 22 Sudoeste 0 -- -- 61
2019-03-28 07:00:00 5.9 13 Sudoeste 22 Sudoeste 0 -- -- 59
2019-03-28 06:00:00 5.7 10 Sudoeste 15 Sudoeste 0 -- -- 57
2019-03-28 05:00:00 6.4 8 Sudoeste 18 Sudoeste 0 -- -- 56
2019-03-28 04:00:00 6.8 7 Oeste 17 Sudoeste 0 -- -- 58
2019-03-28 03:00:00 7.6 12 Sudoeste 21 Sudoeste 0 -- -- 53
2019-03-28 02:00:00 8.2 12 Sudoeste 24 Sudoeste 0 -- -- 52
2019-03-28 01:00:00 8.2 11 Sur 15 Sur 0 -- -- 61
2019-03-28 00:00:00 9.1 6 Sudeste 19 Este 0 -- -- 50
2019-03-27 23:00:00 9.6 11 Este 21 Este 0 -- -- 55
2019-03-27 22:00:00 10.4 9 Este 22 Sudeste 0 -- -- 51
2019-03-27 21:00:00 11.4 13 Sudeste 22 Sudeste 0 -- -- 44
2019-03-27 20:00:00 12.8 15 Sudeste 26 Sudeste 0 -- -- 37
2019-03-27 19:00:00 15.5 9 Sudeste 20 Este 0 -- -- 38
2019-03-27 18:00:00 18.6 7 Oeste 18 Oeste 0 -- -- 21
2019-03-27 17:00:00 18.9 8 Sudoeste 24 Sudoeste 0 -- -- 22
2019-03-27 16:00:00 18.4 11 Oeste 21 Oeste 0 -- -- 23
2019-03-27 15:00:00 17.5 10 Oeste 23 Oeste 0 -- -- 25
2019-03-27 14:00:00 16.3 12 Oeste 26 Oeste 0 -- -- 36
2019-03-27 13:00:00 15.1 13 Oeste 24 Sudoeste 0 -- -- 39
2019-03-27 12:00:00 13.3 12 Oeste 27 Oeste 0 -- -- 42
2019-03-27 11:00:00 11.4 14 Oeste 26 Oeste 0 -- -- 46
2019-03-27 10:00:00 9.6 12 Oeste 21 Oeste 0 -- -- 48
2019-03-27 09:00:00 8 12 Oeste 19 Oeste 0 -- -- 52
2019-03-27 08:00:00 6 11 Sudoeste 17 Sudoeste 0 -- -- 62
2019-03-27 07:00:00 5.4 10 Sudoeste 16 Sudoeste 0 -- -- 63
2019-03-27 06:00:00 5.6 8 Sudoeste 23 Sudoeste 0 -- -- 64
2019-03-27 05:00:00 5.9 9 Sudoeste 15 Sudoeste 0 -- -- 70
2019-03-27 04:00:00 7.1 5 Sudoeste 13 Sudoeste 0 -- -- 60
2019-03-27 03:00:00 7.3 8 Sudoeste 18 Sudoeste 0 -- -- 61
2019-03-27 02:00:00 8 10 Sur 17 Sur 0 -- -- 65
2019-03-27 01:00:00 8.5 12 Sur 22 Sudeste 0 -- -- 73
2019-03-27 00:00:00 9 10 Sudeste 23 Sudeste 0 -- -- 70
2019-03-26 23:00:00 9 9 Este 25 Sudeste 0 -- -- 70
2019-03-26 22:00:00 9.1 10 Este 24 Sudeste 0 -- -- 70
2019-03-26 21:00:00 9.6 14 Este 32 Sudeste 0 -- -- 67
2019-03-26 20:00:00 10.3 12 Este 33 Este 0 -- -- 67
2019-03-26 19:00:00 12.1 14 Este 33 Este 0 -- -- 62
2019-03-26 18:00:00 17.4 10 Sudeste 31 Este 0 -- -- 43
2019-03-26 17:00:00 18.7 8 Oeste 22 Oeste 0 -- -- 22
2019-03-26 16:00:00 18.3 13 Oeste 23 Oeste 0 -- -- 23
2019-03-26 15:00:00 17.4 15 Oeste 31 Sudoeste 0 -- -- 25
2019-03-26 14:00:00 16.2 14 Oeste 30 Oeste 0 -- -- 33
2019-03-26 13:00:00 14.9 14 Sudoeste 30 Oeste 0 -- -- 38
2019-03-26 12:00:00 13.5 16 Oeste 30 Oeste 0 -- -- 45
2019-03-26 11:00:00 11.6 16 Oeste 30 Sudoeste 0 -- -- 52
2019-03-26 10:00:00 9.7 19 Sudoeste 31 Oeste 0 -- -- 57
2019-03-26 09:00:00 8.4 17 Oeste 28 Oeste 0 -- -- 63
2019-03-26 08:00:00 6.5 15 Sudoeste 23 Sudoeste 0 -- -- 70
2019-03-26 07:00:00 5.9 14 Sudoeste 22 Sudoeste 0 -- -- 72
2019-03-26 06:00:00 6 13 Sudoeste 26 Sudoeste 0 -- -- 72
2019-03-26 05:00:00 6.3 13 Sudoeste 31 Sudoeste 0 -- -- 71
2019-03-26 04:00:00 6.9 20 Sudoeste 33 Sudoeste 0 -- -- 68
2019-03-26 03:00:00 7 19 Sudoeste 35 Oeste 0 -- -- 66
2019-03-26 02:00:00 7.4 23 Sudoeste 40 Oeste 0 -- -- 64
2019-03-26 01:00:00 8.1 23 Oeste 41 Sudoeste 0 -- -- 63
2019-03-26 00:00:00 8.7 22 Oeste 42 Sudoeste 0 -- -- 62
2019-03-25 23:00:00 9.4 22 Oeste 40 Sudoeste 0 -- -- 59
2019-03-25 22:00:00 10.3 23 Oeste 45 Oeste 0 -- -- 55
2019-03-25 21:00:00 11.6 21 Oeste 39 Oeste 0 -- -- 50
2019-03-25 20:00:00 13 18 Oeste 33 Oeste 0 -- -- 39
2019-03-25 19:00:00 15.1 19 Oeste 39 Sudoeste 0 -- -- 36
2019-03-25 18:00:00 17 22 Oeste 41 Oeste 0 -- -- 32
2019-03-25 17:00:00 17.8 27 Oeste 39 Oeste 0 -- -- 33
2019-03-25 16:00:00 18.5 24 Oeste 43 Oeste 0 -- -- 33
2019-03-25 15:00:00 18.6 25 Oeste 41 Oeste 0 -- -- 37
2019-03-25 14:00:00 17.9 21 Oeste 42 Sudoeste 0 -- -- 43
2019-03-25 13:00:00 16.7 24 Oeste 39 Sudoeste 0 -- -- 46
2019-03-25 12:00:00 15.2 26 Oeste 47 Oeste 0 -- -- 50
2019-03-25 11:00:00 13.8 25 Oeste 43 Sudoeste 0 -- -- 55
2019-03-25 10:00:00 12.6 24 Oeste 42 Oeste 0 -- -- 55
2019-03-25 09:00:00 11.4 23 Oeste 41 Oeste 0 -- -- 54
2019-03-25 08:00:00 10.1 14 Sudoeste 31 Sudoeste 0 -- -- 54
2019-03-25 07:00:00 10 18 Sudoeste 32 Sudoeste 0 -- -- 53
2019-03-25 06:00:00 10.4 17 Sudoeste 28 Sudoeste 0 -- -- 53
2019-03-25 05:00:00 10.6 18 Sudoeste 25 Sudoeste 0 -- -- 54
2019-03-25 04:00:00 11.1 15 Sudoeste 24 Sudoeste 0 -- -- 51
2019-03-25 03:00:00 11.4 7 Sudoeste 19 Oeste 0 -- -- 49
2019-03-25 02:00:00 12.4 12 Sudoeste 23 Sudoeste 0 -- -- 46
2019-03-25 01:00:00 13.6 11 Sudoeste 19 Sudoeste 0 -- -- 40
2019-03-25 00:00:00 12.8 9 Sudoeste 16 Sudoeste 0 -- -- 45